sensor_id;sensor_type;location;lat;lon;timestamp;P1;durP1;ratioP1;P2;durP2;ratioP2
70970;SDS011;58632;51.718;19.446;2022-12-24T00:00:30;79.40;;;51.30;;
70970;SDS011;58632;51.718;19.446;2022-12-24T00:03:15;76.30;;;46.30;;
70970;SDS011;58632;51.718;19.446;2022-12-24T00:05:41;81.00;;;50.40;;
70970;SDS011;58632;51.718;19.446;2022-12-24T00:08:07;86.50;;;54.40;;
70970;SDS011;58632;51.718;19.446;2022-12-24T00:10:33;85.00;;;52.90;;
70970;SDS011;58632;51.718;19.446;2022-12-24T00:12:59;75.00;;;46.90;;
70970;SDS011;58632;51.718;19.446;2022-12-24T00:15:25;83.50;;;51.60;;
70970;SDS011;58632;51.718;19.446;2022-12-24T00:17:50;81.40;;;48.20;;
70970;SDS011;58632;51.718;19.446;2022-12-24T00:20:16;70.60;;;44.40;;
70970;SDS011;58632;51.718;19.446;2022-12-24T00:22:42;71.20;;;43.40;;
70970;SDS011;58632;51.718;19.446;2022-12-24T00:25:08;62.10;;;38.00;;
70970;SDS011;58632;51.718;19.446;2022-12-24T00:27:34;68.10;;;41.90;;
70970;SDS011;58632;51.718;19.446;2022-12-24T00:30:00;59.70;;;35.20;;
70970;SDS011;58632;51.718;19.446;2022-12-24T00:32:26;58.80;;;34.80;;
70970;SDS011;58632;51.718;19.446;2022-12-24T00:34:52;51.70;;;32.90;;
70970;SDS011;58632;51.718;19.446;2022-12-24T00:37:18;57.90;;;35.80;;
70970;SDS011;58632;51.718;19.446;2022-12-24T00:39:43;57.80;;;33.80;;
70970;SDS011;58632;51.718;19.446;2022-12-24T00:42:09;51.60;;;30.80;;
70970;SDS011;58632;51.718;19.446;2022-12-24T00:44:35;59.30;;;35.20;;
70970;SDS011;58632;51.718;19.446;2022-12-24T00:47:01;48.30;;;27.50;;
70970;SDS011;58632;51.718;19.446;2022-12-24T00:49:27;49.40;;;27.70;;
70970;SDS011;58632;51.718;19.446;2022-12-24T00:51:52;49.40;;;30.30;;
70970;SDS011;58632;51.718;19.446;2022-12-24T00:54:18;47.40;;;28.30;;
70970;SDS011;58632;51.718;19.446;2022-12-24T00:56:44;48.00;;;27.70;;
70970;SDS011;58632;51.718;19.446;2022-12-24T00:59:10;41.80;;;22.90;;
70970;SDS011;58632;51.718;19.446;2022-12-24T01:01:36;40.60;;;23.50;;
70970;SDS011;58632;51.718;19.446;2022-12-24T01:04:02;45.50;;;24.10;;
70970;SDS011;58632;51.718;19.446;2022-12-24T01:06:47;37.80;;;21.40;;
70970;SDS011;58632;51.718;19.446;2022-12-24T01:09:12;37.00;;;20.40;;
70970;SDS011;58632;51.718;19.446;2022-12-24T01:11:38;36.00;;;20.80;;
70970;SDS011;58632;51.718;19.446;2022-12-24T01:14:04;32.90;;;18.90;;
70970;SDS011;58632;51.718;19.446;2022-12-24T01:16:30;33.70;;;19.10;;
70970;SDS011;58632;51.718;19.446;2022-12-24T01:18:56;33.10;;;18.90;;
70970;SDS011;58632;51.718;19.446;2022-12-24T01:21:22;36.20;;;21.10;;
70970;SDS011;58632;51.718;19.446;2022-12-24T01:23:47;37.00;;;20.10;;
70970;SDS011;58632;51.718;19.446;2022-12-24T01:26:13;34.60;;;19.50;;
70970;SDS011;58632;51.718;19.446;2022-12-24T01:28:39;36.60;;;21.60;;
70970;SDS011;58632;51.718;19.446;2022-12-24T01:31:09;32.10;;;20.00;;
70970;SDS011;58632;51.718;19.446;2022-12-24T01:33:39;33.60;;;20.10;;
70970;SDS011;58632;51.718;19.446;2022-12-24T01:36:07;33.50;;;19.40;;
70970;SDS011;58632;51.718;19.446;2022-12-24T01:38:33;31.60;;;18.80;;
70970;SDS011;58632;51.718;19.446;2022-12-24T01:40:59;35.60;;;21.90;;
70970;SDS011;58632;51.718;19.446;2022-12-24T01:43:44;32.60;;;20.80;;
70970;SDS011;58632;51.718;19.446;2022-12-24T01:46:11;33.40;;;21.80;;
70970;SDS011;58632;51.718;19.446;2022-12-24T01:49:02;31.10;;;20.10;;
70970;SDS011;58632;51.718;19.446;2022-12-24T01:51:36;34.50;;;20.50;;
70970;SDS011;58632;51.718;19.446;2022-12-24T01:54:07;30.20;;;19.70;;
70970;SDS011;58632;51.718;19.446;2022-12-24T01:56:43;33.60;;;20.70;;
70970;SDS011;58632;51.718;19.446;2022-12-24T01:59:13;29.80;;;18.60;;
70970;SDS011;58632;51.718;19.446;2022-12-24T02:01:43;33.30;;;21.60;;
70970;SDS011;58632;51.718;19.446;2022-12-24T02:04:15;28.80;;;18.80;;
70970;SDS011;58632;51.718;19.446;2022-12-24T02:06:52;33.60;;;21.10;;
70970;SDS011;58632;51.718;19.446;2022-12-24T02:09:18;28.80;;;19.30;;
70970;SDS011;58632;51.718;19.446;2022-12-24T02:11:44;32.30;;;20.50;;
70970;SDS011;58632;51.718;19.446;2022-12-24T02:14:10;28.50;;;19.30;;
70970;SDS011;58632;51.718;19.446;2022-12-24T02:19:36;32.50;;;19.90;;
70970;SDS011;58632;51.718;19.446;2022-12-24T02:30:35;30.50;;;19.90;;
70970;SDS011;58632;51.718;19.446;2022-12-24T02:35:56;28.60;;;20.10;;
70970;SDS011;58632;51.718;19.446;2022-12-24T02:38:34;34.10;;;21.20;;
70970;SDS011;58632;51.718;19.446;2022-12-24T02:41:08;31.50;;;21.00;;
70970;SDS011;58632;51.718;19.446;2022-12-24T02:43:41;28.30;;;19.80;;
70970;SDS011;58632;51.718;19.446;2022-12-24T02:46:15;31.90;;;20.70;;
70970;SDS011;58632;51.718;19.446;2022-12-24T02:48:43;27.70;;;19.10;;
70970;SDS011;58632;51.718;19.446;2022-12-24T02:51:12;25.90;;;18.40;;
70970;SDS011;58632;51.718;19.446;2022-12-24T02:53:38;27.10;;;19.00;;
70970;SDS011;58632;51.718;19.446;2022-12-24T02:56:11;31.90;;;20.30;;
70970;SDS011;58632;51.718;19.446;2022-12-24T02:59:09;30.30;;;21.70;;
70970;SDS011;58632;51.718;19.446;2022-12-24T03:07:05;31.20;;;20.30;;
70970;SDS011;58632;51.718;19.446;2022-12-24T03:12:15;33.80;;;22.70;;
70970;SDS011;58632;51.718;19.446;2022-12-24T03:14:46;31.30;;;22.70;;
70970;SDS011;58632;51.718;19.446;2022-12-24T03:17:13;32.60;;;22.60;;
70970;SDS011;58632;51.718;19.446;2022-12-24T03:19:41;30.90;;;21.80;;
70970;SDS011;58632;51.718;19.446;2022-12-24T03:22:07;34.40;;;22.90;;
70970;SDS011;58632;51.718;19.446;2022-12-24T03:24:36;35.70;;;22.00;;
70970;SDS011;58632;51.718;19.446;2022-12-24T03:27:03;36.80;;;22.90;;
70970;SDS011;58632;51.718;19.446;2022-12-24T03:29:32;37.20;;;24.50;;
70970;SDS011;58632;51.718;19.446;2022-12-24T03:31:59;39.20;;;25.10;;
70970;SDS011;58632;51.718;19.446;2022-12-24T03:34:27;34.90;;;24.50;;
70970;SDS011;58632;51.718;19.446;2022-12-24T03:36:53;36.10;;;23.60;;
70970;SDS011;58632;51.718;19.446;2022-12-24T03:39:19;31.20;;;22.20;;
70970;SDS011;58632;51.718;19.446;2022-12-24T03:41:45;33.00;;;22.30;;
70970;SDS011;58632;51.718;19.446;2022-12-24T03:44:11;34.00;;;23.30;;
70970;SDS011;58632;51.718;19.446;2022-12-24T03:46:38;32.70;;;22.50;;
70970;SDS011;58632;51.718;19.446;2022-12-24T03:49:04;32.10;;;22.60;;
70970;SDS011;58632;51.718;19.446;2022-12-24T03:51:30;31.40;;;22.70;;
70970;SDS011;58632;51.718;19.446;2022-12-24T03:53:57;30.80;;;22.30;;
70970;SDS011;58632;51.718;19.446;2022-12-24T03:56:24;34.10;;;23.60;;
70970;SDS011;58632;51.718;19.446;2022-12-24T03:58:50;32.70;;;23.70;;
70970;SDS011;58632;51.718;19.446;2022-12-24T04:01:16;37.80;;;25.70;;
70970;SDS011;58632;51.718;19.446;2022-12-24T04:03:43;33.10;;;25.10;;
70970;SDS011;58632;51.718;19.446;2022-12-24T04:06:10;39.60;;;24.80;;
70970;SDS011;58632;51.718;19.446;2022-12-24T04:08:38;33.20;;;22.90;;
70970;SDS011;58632;51.718;19.446;2022-12-24T04:11:05;33.10;;;22.90;;
70970;SDS011;58632;51.718;19.446;2022-12-24T04:13:32;31.70;;;21.70;;
70970;SDS011;58632;51.718;19.446;2022-12-24T04:16:03;28.60;;;20.80;;
70970;SDS011;58632;51.718;19.446;2022-12-24T04:18:31;34.60;;;23.30;;
70970;SDS011;58632;51.718;19.446;2022-12-24T04:20:56;29.70;;;22.60;;
70970;SDS011;58632;51.718;19.446;2022-12-24T04:23:23;32.90;;;22.70;;
70970;SDS011;58632;51.718;19.446;2022-12-24T04:25:49;31.40;;;20.90;;
70970;SDS011;58632;51.718;19.446;2022-12-24T04:28:15;32.30;;;22.00;;
70970;SDS011;58632;51.718;19.446;2022-12-24T04:30:41;32.90;;;21.20;;
70970;SDS011;58632;51.718;19.446;2022-12-24T04:33:08;29.80;;;20.80;;
70970;SDS011;58632;51.718;19.446;2022-12-24T04:35:37;30.30;;;22.90;;
70970;SDS011;58632;51.718;19.446;2022-12-24T04:38:06;30.90;;;22.00;;
70970;SDS011;58632;51.718;19.446;2022-12-24T04:40:32;30.90;;;22.20;;
70970;SDS011;58632;51.718;19.446;2022-12-24T04:42:58;31.20;;;22.10;;
70970;SDS011;58632;51.718;19.446;2022-12-24T04:45:24;34.00;;;23.70;;
70970;SDS011;58632;51.718;19.446;2022-12-24T04:47:50;31.70;;;23.10;;
70970;SDS011;58632;51.718;19.446;2022-12-24T04:50:16;30.60;;;21.20;;
70970;SDS011;58632;51.718;19.446;2022-12-24T04:52:41;32.30;;;21.80;;
70970;SDS011;58632;51.718;19.446;2022-12-24T04:55:07;30.10;;;20.70;;
70970;SDS011;58632;51.718;19.446;2022-12-24T04:57:34;31.00;;;23.00;;
70970;SDS011;58632;51.718;19.446;2022-12-24T05:00:03;33.30;;;22.80;;
70970;SDS011;58632;51.718;19.446;2022-12-24T05:02:29;35.40;;;24.70;;
70970;SDS011;58632;51.718;19.446;2022-12-24T05:04:55;36.10;;;26.00;;
70970;SDS011;58632;51.718;19.446;2022-12-24T05:07:21;36.50;;;23.90;;
70970;SDS011;58632;51.718;19.446;2022-12-24T05:09:47;34.50;;;24.10;;
70970;SDS011;58632;51.718;19.446;2022-12-24T05:12:13;35.80;;;26.10;;
70970;SDS011;58632;51.718;19.446;2022-12-24T05:14:39;35.60;;;25.50;;
70970;SDS011;58632;51.718;19.446;2022-12-24T05:17:05;36.40;;;27.20;;
70970;SDS011;58632;51.718;19.446;2022-12-24T05:19:31;37.20;;;26.40;;
70970;SDS011;58632;51.718;19.446;2022-12-24T05:21:57;37.10;;;26.70;;
70970;SDS011;58632;51.718;19.446;2022-12-24T05:24:55;35.80;;;24.80;;
70970;SDS011;58632;51.718;19.446;2022-12-24T05:27:40;39.70;;;27.30;;
70970;SDS011;58632;51.718;19.446;2022-12-24T05:30:06;40.10;;;29.00;;
70970;SDS011;58632;51.718;19.446;2022-12-24T05:32:33;36.40;;;26.20;;
70970;SDS011;58632;51.718;19.446;2022-12-24T05:34:58;38.70;;;26.50;;
70970;SDS011;58632;51.718;19.446;2022-12-24T05:37:24;35.80;;;26.70;;
70970;SDS011;58632;51.718;19.446;2022-12-24T05:39:50;35.50;;;25.00;;
70970;SDS011;58632;51.718;19.446;2022-12-24T05:42:16;36.70;;;26.10;;
70970;SDS011;58632;51.718;19.446;2022-12-24T05:44:42;33.10;;;24.60;;
70970;SDS011;58632;51.718;19.446;2022-12-24T05:47:08;35.50;;;25.00;;
70970;SDS011;58632;51.718;19.446;2022-12-24T05:49:34;34.90;;;24.60;;
70970;SDS011;58632;51.718;19.446;2022-12-24T05:52:00;37.20;;;25.90;;
70970;SDS011;58632;51.718;19.446;2022-12-24T05:54:25;36.20;;;27.30;;
70970;SDS011;58632;51.718;19.446;2022-12-24T05:56:52;35.70;;;26.20;;
70970;SDS011;58632;51.718;19.446;2022-12-24T05:59:18;37.60;;;25.80;;
70970;SDS011;58632;51.718;19.446;2022-12-24T06:01:44;35.50;;;25.20;;
70970;SDS011;58632;51.718;19.446;2022-12-24T06:04:12;34.60;;;25.20;;
70970;SDS011;58632;51.718;19.446;2022-12-24T06:06:38;37.60;;;27.60;;
70970;SDS011;58632;51.718;19.446;2022-12-24T06:09:04;33.20;;;24.90;;
70970;SDS011;58632;51.718;19.446;2022-12-24T06:11:30;34.70;;;25.30;;
70970;SDS011;58632;51.718;19.446;2022-12-24T06:13:55;35.60;;;25.00;;
70970;SDS011;58632;51.718;19.446;2022-12-24T06:16:21;37.30;;;26.40;;
70970;SDS011;58632;51.718;19.446;2022-12-24T06:18:49;33.30;;;24.10;;
70970;SDS011;58632;51.718;19.446;2022-12-24T06:21:15;35.20;;;25.20;;
70970;SDS011;58632;51.718;19.446;2022-12-24T06:23:42;33.60;;;25.70;;
70970;SDS011;58632;51.718;19.446;2022-12-24T06:26:10;36.20;;;26.10;;
70970;SDS011;58632;51.718;19.446;2022-12-24T06:28:38;45.40;;;31.80;;
70970;SDS011;58632;51.718;19.446;2022-12-24T06:31:04;39.80;;;29.00;;
70970;SDS011;58632;51.718;19.446;2022-12-24T06:33:31;42.40;;;29.90;;
70970;SDS011;58632;51.718;19.446;2022-12-24T06:38:24;38.20;;;27.00;;
70970;SDS011;58632;51.718;19.446;2022-12-24T06:40:49;34.40;;;25.40;;
70970;SDS011;58632;51.718;19.446;2022-12-24T06:43:15;37.00;;;25.10;;
70970;SDS011;58632;51.718;19.446;2022-12-24T06:45:45;37.60;;;26.30;;
70970;SDS011;58632;51.718;19.446;2022-12-24T06:48:12;36.80;;;26.10;;
70970;SDS011;58632;51.718;19.446;2022-12-24T06:50:38;38.40;;;27.30;;
70970;SDS011;58632;51.718;19.446;2022-12-24T06:53:04;38.80;;;28.10;;
70970;SDS011;58632;51.718;19.446;2022-12-24T06:55:29;36.50;;;25.20;;
70970;SDS011;58632;51.718;19.446;2022-12-24T06:57:56;37.20;;;26.10;;
70970;SDS011;58632;51.718;19.446;2022-12-24T07:00:22;36.10;;;26.50;;
70970;SDS011;58632;51.718;19.446;2022-12-24T07:02:48;35.60;;;24.90;;
70970;SDS011;58632;51.718;19.446;2022-12-24T07:05:14;39.60;;;26.70;;
70970;SDS011;58632;51.718;19.446;2022-12-24T07:07:40;36.40;;;27.00;;
70970;SDS011;58632;51.718;19.446;2022-12-24T07:10:09;37.40;;;27.30;;
70970;SDS011;58632;51.718;19.446;2022-12-24T07:12:37;38.50;;;27.20;;
70970;SDS011;58632;51.718;19.446;2022-12-24T07:15:03;37.60;;;28.00;;
70970;SDS011;58632;51.718;19.446;2022-12-24T07:17:29;39.70;;;27.70;;
70970;SDS011;58632;51.718;19.446;2022-12-24T07:19:55;39.40;;;28.50;;
70970;SDS011;58632;51.718;19.446;2022-12-24T07:22:21;38.20;;;28.50;;
70970;SDS011;58632;51.718;19.446;2022-12-24T07:24:47;38.40;;;28.40;;
70970;SDS011;58632;51.718;19.446;2022-12-24T07:27:13;38.90;;;27.20;;
70970;SDS011;58632;51.718;19.446;2022-12-24T07:29:39;35.50;;;24.70;;
70970;SDS011;58632;51.718;19.446;2022-12-24T07:32:05;32.30;;;23.50;;
70970;SDS011;58632;51.718;19.446;2022-12-24T07:34:31;33.60;;;22.70;;
70970;SDS011;58632;51.718;19.446;2022-12-24T07:36:58;31.60;;;23.20;;
70970;SDS011;58632;51.718;19.446;2022-12-24T07:39:23;34.00;;;24.40;;
70970;SDS011;58632;51.718;19.446;2022-12-24T07:41:49;34.90;;;24.30;;
70970;SDS011;58632;51.718;19.446;2022-12-24T07:44:15;35.20;;;24.60;;
70970;SDS011;58632;51.718;19.446;2022-12-24T07:46:41;37.30;;;25.40;;
70970;SDS011;58632;51.718;19.446;2022-12-24T07:49:08;36.10;;;25.40;;
70970;SDS011;58632;51.718;19.446;2022-12-24T07:51:34;40.20;;;29.40;;
70970;SDS011;58632;51.718;19.446;2022-12-24T07:54:00;37.50;;;28.40;;
70970;SDS011;58632;51.718;19.446;2022-12-24T07:56:26;41.80;;;30.10;;
70970;SDS011;58632;51.718;19.446;2022-12-24T07:58:51;43.20;;;30.30;;
70970;SDS011;58632;51.718;19.446;2022-12-24T08:01:17;41.90;;;29.80;;
70970;SDS011;58632;51.718;19.446;2022-12-24T08:03:43;41.80;;;30.40;;
70970;SDS011;58632;51.718;19.446;2022-12-24T08:06:09;41.00;;;28.70;;
70970;SDS011;58632;51.718;19.446;2022-12-24T08:08:36;37.50;;;26.70;;
70970;SDS011;58632;51.718;19.446;2022-12-24T08:11:02;40.10;;;27.60;;
70970;SDS011;58632;51.718;19.446;2022-12-24T08:13:30;49.40;;;33.00;;
70970;SDS011;58632;51.718;19.446;2022-12-24T08:15:57;45.10;;;30.20;;
70970;SDS011;58632;51.718;19.446;2022-12-24T08:18:23;47.60;;;32.00;;
70970;SDS011;58632;51.718;19.446;2022-12-24T08:20:50;39.80;;;27.20;;
70970;SDS011;58632;51.718;19.446;2022-12-24T08:23:16;38.90;;;26.80;;
70970;SDS011;58632;51.718;19.446;2022-12-24T08:25:43;34.80;;;22.80;;
70970;SDS011;58632;51.718;19.446;2022-12-24T08:28:11;45.10;;;33.40;;
70970;SDS011;58632;51.718;19.446;2022-12-24T08:30:38;30.00;;;20.40;;
70970;SDS011;58632;51.718;19.446;2022-12-24T08:33:04;34.90;;;27.70;;
70970;SDS011;58632;51.718;19.446;2022-12-24T08:35:30;37.60;;;29.60;;
70970;SDS011;58632;51.718;19.446;2022-12-24T08:37:56;31.10;;;22.40;;
70970;SDS011;58632;51.718;19.446;2022-12-24T08:40:22;26.50;;;18.80;;
70970;SDS011;58632;51.718;19.446;2022-12-24T08:42:48;25.80;;;17.60;;
70970;SDS011;58632;51.718;19.446;2022-12-24T08:45:14;25.40;;;16.40;;
70970;SDS011;58632;51.718;19.446;2022-12-24T08:47:41;25.00;;;17.20;;
70970;SDS011;58632;51.718;19.446;2022-12-24T08:50:07;26.80;;;18.20;;
70970;SDS011;58632;51.718;19.446;2022-12-24T08:52:34;27.10;;;19.10;;
70970;SDS011;58632;51.718;19.446;2022-12-24T08:55:00;21.90;;;15.60;;
70970;SDS011;58632;51.718;19.446;2022-12-24T08:57:26;26.40;;;17.90;;
70970;SDS011;58632;51.718;19.446;2022-12-24T08:59:53;21.40;;;15.50;;
70970;SDS011;58632;51.718;19.446;2022-12-24T09:02:21;19.50;;;13.00;;
70970;SDS011;58632;51.718;19.446;2022-12-24T09:04:47;31.60;;;19.60;;
70970;SDS011;58632;51.718;19.446;2022-12-24T09:07:13;19.60;;;14.30;;
70970;SDS011;58632;51.718;19.446;2022-12-24T09:09:39;17.70;;;12.50;;
70970;SDS011;58632;51.718;19.446;2022-12-24T09:12:05;14.60;;;11.20;;
70970;SDS011;58632;51.718;19.446;2022-12-24T09:14:32;15.00;;;11.70;;
70970;SDS011;58632;51.718;19.446;2022-12-24T09:16:57;15.20;;;11.70;;
70970;SDS011;58632;51.718;19.446;2022-12-24T09:19:24;16.50;;;11.50;;
70970;SDS011;58632;51.718;19.446;2022-12-24T09:21:50;14.60;;;10.10;;
70970;SDS011;58632;51.718;19.446;2022-12-24T09:24:15;15.60;;;12.10;;
70970;SDS011;58632;51.718;19.446;2022-12-24T09:26:41;19.50;;;12.90;;
70970;SDS011;58632;51.718;19.446;2022-12-24T09:29:10;16.00;;;11.00;;
70970;SDS011;58632;51.718;19.446;2022-12-24T09:31:35;17.40;;;13.60;;
70970;SDS011;58632;51.718;19.446;2022-12-24T09:34:01;19.10;;;14.60;;
70970;SDS011;58632;51.718;19.446;2022-12-24T09:36:27;19.80;;;13.50;;
70970;SDS011;58632;51.718;19.446;2022-12-24T09:38:53;18.10;;;12.30;;
70970;SDS011;58632;51.718;19.446;2022-12-24T09:44:11;11.70;;;8.20;;
70970;SDS011;58632;51.718;19.446;2022-12-24T09:46:38;14.60;;;8.80;;
70970;SDS011;58632;51.718;19.446;2022-12-24T09:49:10;13.90;;;9.30;;
70970;SDS011;58632;51.718;19.446;2022-12-24T09:51:49;15.70;;;10.10;;
70970;SDS011;58632;51.718;19.446;2022-12-24T09:54:24;12.50;;;10.40;;
70970;SDS011;58632;51.718;19.446;2022-12-24T09:56:53;15.40;;;10.90;;
70970;SDS011;58632;51.718;19.446;2022-12-24T09:59:28;16.60;;;11.90;;
70970;SDS011;58632;51.718;19.446;2022-12-24T10:02:06;15.80;;;10.80;;
70970;SDS011;58632;51.718;19.446;2022-12-24T10:04:44;17.10;;;12.20;;
70970;SDS011;58632;51.718;19.446;2022-12-24T10:07:24;19.20;;;14.20;;
70970;SDS011;58632;51.718;19.446;2022-12-24T10:10:12;12.20;;;9.60;;
70970;SDS011;58632;51.718;19.446;2022-12-24T10:21:15;15.60;;;11.00;;
70970;SDS011;58632;51.718;19.446;2022-12-24T10:28:49;14.10;;;10.50;;
70970;SDS011;58632;51.718;19.446;2022-12-24T10:31:24;15.60;;;10.80;;
70970;SDS011;58632;51.718;19.446;2022-12-24T10:33:54;13.70;;;10.20;;
70970;SDS011;58632;51.718;19.446;2022-12-24T10:36:28;13.50;;;9.80;;
70970;SDS011;58632;51.718;19.446;2022-12-24T10:38:55;17.40;;;12.70;;
70970;SDS011;58632;51.718;19.446;2022-12-24T10:41:21;14.20;;;10.00;;
70970;SDS011;58632;51.718;19.446;2022-12-24T10:43:50;13.70;;;10.50;;
70970;SDS011;58632;51.718;19.446;2022-12-24T10:46:20;12.30;;;9.20;;
70970;SDS011;58632;51.718;19.446;2022-12-24T10:48:52;14.00;;;10.10;;
70970;SDS011;58632;51.718;19.446;2022-12-24T10:54:16;27.50;;;19.00;;
70970;SDS011;58632;51.718;19.446;2022-12-24T10:56:48;24.30;;;18.30;;
70970;SDS011;58632;51.718;19.446;2022-12-24T11:01:49;16.40;;;12.40;;
70970;SDS011;58632;51.718;19.446;2022-12-24T11:04:16;22.60;;;16.40;;
70970;SDS011;58632;51.718;19.446;2022-12-24T11:06:53;30.40;;;24.90;;
70970;SDS011;58632;51.718;19.446;2022-12-24T11:09:20;21.00;;;17.50;;
70970;SDS011;58632;51.718;19.446;2022-12-24T11:11:48;21.80;;;14.70;;
70970;SDS011;58632;51.718;19.446;2022-12-24T11:14:15;22.90;;;15.00;;
70970;SDS011;58632;51.718;19.446;2022-12-24T11:16:49;19.30;;;13.60;;
70970;SDS011;58632;51.718;19.446;2022-12-24T11:19:19;24.00;;;17.00;;
70970;SDS011;58632;51.718;19.446;2022-12-24T11:22:00;22.60;;;16.40;;
70970;SDS011;58632;51.718;19.446;2022-12-24T11:24:29;21.60;;;16.30;;
70970;SDS011;58632;51.718;19.446;2022-12-24T11:32:37;22.40;;;16.70;;
70970;SDS011;58632;51.718;19.446;2022-12-24T11:35:07;25.10;;;16.50;;
70970;SDS011;58632;51.718;19.446;2022-12-24T11:37:40;25.60;;;17.60;;
70970;SDS011;58632;51.718;19.446;2022-12-24T11:40:16;22.90;;;17.00;;
70970;SDS011;58632;51.718;19.446;2022-12-24T11:42:47;22.70;;;16.20;;
70970;SDS011;58632;51.718;19.446;2022-12-24T11:45:20;22.80;;;15.20;;
70970;SDS011;58632;51.718;19.446;2022-12-24T11:47:49;27.00;;;17.40;;
70970;SDS011;58632;51.718;19.446;2022-12-24T11:53:40;25.00;;;16.10;;
70970;SDS011;58632;51.718;19.446;2022-12-24T11:55:47;28.60;;;18.20;;
70970;SDS011;58632;51.718;19.446;2022-12-24T12:01:13;28.50;;;16.50;;
70970;SDS011;58632;51.718;19.446;2022-12-24T12:03:47;30.90;;;18.70;;
70970;SDS011;58632;51.718;19.446;2022-12-24T12:06:36;28.40;;;19.30;;
70970;SDS011;58632;51.718;19.446;2022-12-24T12:09:06;26.50;;;18.10;;
70970;SDS011;58632;51.718;19.446;2022-12-24T12:11:37;29.80;;;18.90;;
70970;SDS011;58632;51.718;19.446;2022-12-24T12:14:05;32.30;;;21.70;;
70970;SDS011;58632;51.718;19.446;2022-12-24T12:19:26;45.80;;;35.00;;
70970;SDS011;58632;51.718;19.446;2022-12-24T12:21:56;28.60;;;18.60;;
70970;SDS011;58632;51.718;19.446;2022-12-24T12:24:28;28.50;;;19.00;;
70970;SDS011;58632;51.718;19.446;2022-12-24T12:27:18;29.80;;;19.10;;
70970;SDS011;58632;51.718;19.446;2022-12-24T12:29:53;28.30;;;18.60;;
70970;SDS011;58632;51.718;19.446;2022-12-24T12:37:54;31.40;;;20.00;;
70970;SDS011;58632;51.718;19.446;2022-12-24T12:40:31;27.60;;;17.80;;
70970;SDS011;58632;51.718;19.446;2022-12-24T12:50:51;29.50;;;20.00;;
70970;SDS011;58632;51.718;19.446;2022-12-24T12:56:20;35.40;;;21.90;;
70970;SDS011;58632;51.718;19.446;2022-12-24T12:58:50;31.40;;;21.70;;
70970;SDS011;58632;51.718;19.446;2022-12-24T13:04:01;23.80;;;16.10;;
70970;SDS011;58632;51.718;19.446;2022-12-24T13:06:45;42.10;;;27.40;;
70970;SDS011;58632;51.718;19.446;2022-12-24T13:20:22;21.80;;;15.50;;
70970;SDS011;58632;51.718;19.446;2022-12-24T13:23:02;26.10;;;16.40;;
70970;SDS011;58632;51.718;19.446;2022-12-24T13:25:39;21.40;;;14.60;;
70970;SDS011;58632;51.718;19.446;2022-12-24T13:31:33;40.40;;;16.50;;
70970;SDS011;58632;51.718;19.446;2022-12-24T13:36:08;29.10;;;16.70;;
70970;SDS011;58632;51.718;19.446;2022-12-24T13:44:07;27.20;;;16.50;;
70970;SDS011;58632;51.718;19.446;2022-12-24T13:46:47;28.40;;;18.60;;
70970;SDS011;58632;51.718;19.446;2022-12-24T13:54:39;31.90;;;22.70;;
70970;SDS011;58632;51.718;19.446;2022-12-24T13:57:22;29.10;;;18.60;;
70970;SDS011;58632;51.718;19.446;2022-12-24T13:59:52;60.20;;;41.90;;
70970;SDS011;58632;51.718;19.446;2022-12-24T14:02:23;44.80;;;29.20;;
70970;SDS011;58632;51.718;19.446;2022-12-24T14:04:51;39.80;;;26.30;;
70970;SDS011;58632;51.718;19.446;2022-12-24T14:07:21;37.80;;;24.80;;
70970;SDS011;58632;51.718;19.446;2022-12-24T14:09:50;47.60;;;30.10;;
70970;SDS011;58632;51.718;19.446;2022-12-24T14:12:30;48.20;;;31.60;;
70970;SDS011;58632;51.718;19.446;2022-12-24T14:18:15;48.70;;;29.90;;
70970;SDS011;58632;51.718;19.446;2022-12-24T14:20:42;59.20;;;32.90;;
70970;SDS011;58632;51.718;19.446;2022-12-24T14:23:22;39.60;;;22.50;;
70970;SDS011;58632;51.718;19.446;2022-12-24T14:26:09;45.20;;;29.10;;
70970;SDS011;58632;51.718;19.446;2022-12-24T14:28:41;46.10;;;29.60;;
70970;SDS011;58632;51.718;19.446;2022-12-24T14:31:15;43.80;;;29.50;;
70970;SDS011;58632;51.718;19.446;2022-12-24T14:33:43;51.50;;;34.90;;
70970;SDS011;58632;51.718;19.446;2022-12-24T14:36:09;36.30;;;21.80;;
70970;SDS011;58632;51.718;19.446;2022-12-24T14:38:35;32.90;;;21.80;;
70970;SDS011;58632;51.718;19.446;2022-12-24T14:41:13;29.10;;;17.90;;
70970;SDS011;58632;51.718;19.446;2022-12-24T14:46:26;35.90;;;20.00;;
70970;SDS011;58632;51.718;19.446;2022-12-24T14:57:33;59.10;;;33.00;;
70970;SDS011;58632;51.718;19.446;2022-12-24T15:02:46;38.50;;;23.50;;
70970;SDS011;58632;51.718;19.446;2022-12-24T15:05:22;55.20;;;33.30;;
70970;SDS011;58632;51.718;19.446;2022-12-24T15:13:22;34.20;;;21.20;;
70970;SDS011;58632;51.718;19.446;2022-12-24T15:15:54;29.70;;;18.70;;
70970;SDS011;58632;51.718;19.446;2022-12-24T15:20:50;40.80;;;24.30;;
70970;SDS011;58632;51.718;19.446;2022-12-24T15:23:24;41.10;;;24.20;;
70970;SDS011;58632;51.718;19.446;2022-12-24T15:28:38;55.40;;;30.90;;
70970;SDS011;58632;51.718;19.446;2022-12-24T15:31:06;62.30;;;36.20;;
70970;SDS011;58632;51.718;19.446;2022-12-24T15:33:37;45.00;;;27.90;;
70970;SDS011;58632;51.718;19.446;2022-12-24T15:36:04;74.10;;;36.20;;
70970;SDS011;58632;51.718;19.446;2022-12-24T15:38:37;61.20;;;37.30;;
70970;SDS011;58632;51.718;19.446;2022-12-24T15:41:05;74.10;;;38.20;;
70970;SDS011;58632;51.718;19.446;2022-12-24T15:43:53;45.70;;;26.90;;
70970;SDS011;58632;51.718;19.446;2022-12-24T15:46:25;44.50;;;30.10;;
70970;SDS011;58632;51.718;19.446;2022-12-24T15:48:53;40.20;;;26.30;;
70970;SDS011;58632;51.718;19.446;2022-12-24T15:51:25;54.40;;;30.80;;
70970;SDS011;58632;51.718;19.446;2022-12-24T15:53:58;54.20;;;30.10;;
70970;SDS011;58632;51.718;19.446;2022-12-24T15:56:36;34.70;;;20.80;;
70970;SDS011;58632;51.718;19.446;2022-12-24T16:01:41;63.80;;;32.70;;
70970;SDS011;58632;51.718;19.446;2022-12-24T16:04:11;43.30;;;25.80;;
70970;SDS011;58632;51.718;19.446;2022-12-24T16:09:28;59.70;;;32.00;;
70970;SDS011;58632;51.718;19.446;2022-12-24T16:12:00;60.80;;;35.30;;
70970;SDS011;58632;51.718;19.446;2022-12-24T16:14:28;59.40;;;34.20;;
70970;SDS011;58632;51.718;19.446;2022-12-24T16:16:55;50.60;;;29.80;;
70970;SDS011;58632;51.718;19.446;2022-12-24T16:22:01;46.50;;;24.60;;
70970;SDS011;58632;51.718;19.446;2022-12-24T16:24:47;51.90;;;29.30;;
70970;SDS011;58632;51.718;19.446;2022-12-24T16:27:13;51.90;;;28.40;;
70970;SDS011;58632;51.718;19.446;2022-12-24T16:29:39;46.70;;;28.50;;
70970;SDS011;58632;51.718;19.446;2022-12-24T16:32:05;38.50;;;23.50;;
70970;SDS011;58632;51.718;19.446;2022-12-24T16:34:31;37.40;;;23.90;;
70970;SDS011;58632;51.718;19.446;2022-12-24T16:36:59;38.00;;;24.80;;
70970;SDS011;58632;51.718;19.446;2022-12-24T16:39:28;38.10;;;23.20;;
70970;SDS011;58632;51.718;19.446;2022-12-24T16:41:59;43.00;;;25.70;;